sensor_id;sensor_type;location;lat;lon;timestamp;P1;durP1;ratioP1;P2;durP2;ratioP2
12665;SDS011;58531;59.050;17.416;2022-07-31T00:02:22;0.70;;;0.70;;
12665;SDS011;58531;59.050;17.416;2022-07-31T00:04:48;0.80;;;0.80;;
12665;SDS011;58531;59.050;17.416;2022-07-31T00:07:15;1.40;;;0.80;;
12665;SDS011;58531;59.050;17.416;2022-07-31T00:09:42;1.27;;;1.00;;
12665;SDS011;58531;59.050;17.416;2022-07-31T00:12:08;0.93;;;0.77;;
12665;SDS011;58531;59.050;17.416;2022-07-31T00:14:35;0.80;;;0.70;;
12665;SDS011;58531;59.050;17.416;2022-07-31T00:17:01;1.33;;;0.77;;
12665;SDS011;58531;59.050;17.416;2022-07-31T00:19:29;1.00;;;0.90;;
12665;SDS011;58531;59.050;17.416;2022-07-31T00:21:56;0.77;;;0.77;;
12665;SDS011;58531;59.050;17.416;2022-07-31T00:24:23;1.70;;;0.80;;
12665;SDS011;58531;59.050;17.416;2022-07-31T00:26:50;0.70;;;0.70;;
12665;SDS011;58531;59.050;17.416;2022-07-31T00:29:17;0.80;;;0.70;;
12665;SDS011;58531;59.050;17.416;2022-07-31T00:31:44;2.00;;;0.80;;
12665;SDS011;58531;59.050;17.416;2022-07-31T00:34:10;0.70;;;0.70;;
12665;SDS011;58531;59.050;17.416;2022-07-31T00:36:38;1.47;;;1.00;;
12665;SDS011;58531;59.050;17.416;2022-07-31T00:39:06;0.93;;;0.93;;
12665;SDS011;58531;59.050;17.416;2022-07-31T00:41:38;1.00;;;0.90;;
12665;SDS011;58531;59.050;17.416;2022-07-31T00:44:05;0.63;;;0.63;;
12665;SDS011;58531;59.050;17.416;2022-07-31T00:46:31;0.70;;;0.70;;
12665;SDS011;58531;59.050;17.416;2022-07-31T00:48:58;1.03;;;0.70;;
12665;SDS011;58531;59.050;17.416;2022-07-31T00:51:24;0.60;;;0.60;;
12665;SDS011;58531;59.050;17.416;2022-07-31T00:53:53;0.97;;;0.90;;
12665;SDS011;58531;59.050;17.416;2022-07-31T00:56:20;1.20;;;0.80;;
12665;SDS011;58531;59.050;17.416;2022-07-31T00:58:46;0.90;;;0.70;;
12665;SDS011;58531;59.050;17.416;2022-07-31T01:01:13;1.40;;;0.70;;
12665;SDS011;58531;59.050;17.416;2022-07-31T01:03:40;2.57;;;0.97;;
12665;SDS011;58531;59.050;17.416;2022-07-31T01:06:06;1.17;;;0.70;;
12665;SDS011;58531;59.050;17.416;2022-07-31T01:08:33;0.57;;;0.57;;
12665;SDS011;58531;59.050;17.416;2022-07-31T01:11:03;0.50;;;0.50;;
12665;SDS011;58531;59.050;17.416;2022-07-31T01:13:34;0.77;;;0.77;;
12665;SDS011;58531;59.050;17.416;2022-07-31T01:16:06;1.10;;;0.70;;
12665;SDS011;58531;59.050;17.416;2022-07-31T01:18:35;0.83;;;0.70;;
12665;SDS011;58531;59.050;17.416;2022-07-31T01:21:03;1.17;;;0.80;;
12665;SDS011;58531;59.050;17.416;2022-07-31T01:23:49;0.60;;;0.60;;
12665;SDS011;58531;59.050;17.416;2022-07-31T01:26:36;2.10;;;0.70;;
12665;SDS011;58531;59.050;17.416;2022-07-31T01:29:14;0.60;;;0.60;;
12665;SDS011;58531;59.050;17.416;2022-07-31T01:31:44;0.80;;;0.80;;
12665;SDS011;58531;59.050;17.416;2022-07-31T01:34:18;0.70;;;0.70;;
12665;SDS011;58531;59.050;17.416;2022-07-31T01:36:51;0.80;;;0.70;;
12665;SDS011;58531;59.050;17.416;2022-07-31T01:39:23;0.67;;;0.67;;
12665;SDS011;58531;59.050;17.416;2022-07-31T01:41:51;1.00;;;0.90;;
12665;SDS011;58531;59.050;17.416;2022-07-31T01:44:21;1.13;;;1.00;;
12665;SDS011;58531;59.050;17.416;2022-07-31T01:46:51;1.47;;;0.80;;
12665;SDS011;58531;59.050;17.416;2022-07-31T01:49:18;1.20;;;0.90;;
12665;SDS011;58531;59.050;17.416;2022-07-31T01:51:47;0.90;;;0.87;;
12665;SDS011;58531;59.050;17.416;2022-07-31T01:54:14;0.70;;;0.70;;
12665;SDS011;58531;59.050;17.416;2022-07-31T01:56:43;0.90;;;0.70;;
12665;SDS011;58531;59.050;17.416;2022-07-31T01:59:14;0.70;;;0.70;;
12665;SDS011;58531;59.050;17.416;2022-07-31T02:01:43;1.83;;;0.87;;
12665;SDS011;58531;59.050;17.416;2022-07-31T02:04:12;0.90;;;0.80;;
12665;SDS011;58531;59.050;17.416;2022-07-31T02:06:40;1.13;;;0.83;;
12665;SDS011;58531;59.050;17.416;2022-07-31T02:09:08;0.67;;;0.67;;
12665;SDS011;58531;59.050;17.416;2022-07-31T02:11:36;2.00;;;1.00;;
12665;SDS011;58531;59.050;17.416;2022-07-31T02:14:03;0.70;;;0.70;;
12665;SDS011;58531;59.050;17.416;2022-07-31T02:16:30;0.93;;;0.87;;
12665;SDS011;58531;59.050;17.416;2022-07-31T02:18:59;1.00;;;0.70;;
12665;SDS011;58531;59.050;17.416;2022-07-31T02:21:27;0.80;;;0.80;;
12665;SDS011;58531;59.050;17.416;2022-07-31T02:23:54;0.87;;;0.80;;
12665;SDS011;58531;59.050;17.416;2022-07-31T02:26:21;1.27;;;0.80;;
12665;SDS011;58531;59.050;17.416;2022-07-31T02:28:49;1.20;;;0.70;;
12665;SDS011;58531;59.050;17.416;2022-07-31T02:31:17;2.17;;;0.90;;
12665;SDS011;58531;59.050;17.416;2022-07-31T02:33:47;1.20;;;1.03;;
12665;SDS011;58531;59.050;17.416;2022-07-31T02:36:16;0.83;;;0.60;;
12665;SDS011;58531;59.050;17.416;2022-07-31T02:38:44;1.63;;;1.00;;
12665;SDS011;58531;59.050;17.416;2022-07-31T02:41:13;1.00;;;0.90;;
12665;SDS011;58531;59.050;17.416;2022-07-31T02:43:41;1.10;;;0.90;;
12665;SDS011;58531;59.050;17.416;2022-07-31T02:46:10;1.63;;;1.00;;
12665;SDS011;58531;59.050;17.416;2022-07-31T02:48:38;1.43;;;0.80;;
12665;SDS011;58531;59.050;17.416;2022-07-31T02:51:05;0.77;;;0.77;;
12665;SDS011;58531;59.050;17.416;2022-07-31T02:53:34;2.60;;;0.90;;
12665;SDS011;58531;59.050;17.416;2022-07-31T02:56:02;0.70;;;0.70;;
12665;SDS011;58531;59.050;17.416;2022-07-31T02:58:33;0.80;;;0.80;;
12665;SDS011;58531;59.050;17.416;2022-07-31T03:01:00;0.97;;;0.77;;
12665;SDS011;58531;59.050;17.416;2022-07-31T03:03:27;1.07;;;0.80;;
12665;SDS011;58531;59.050;17.416;2022-07-31T03:05:54;0.97;;;0.87;;
12665;SDS011;58531;59.050;17.416;2022-07-31T03:08:21;1.23;;;0.97;;
12665;SDS011;58531;59.050;17.416;2022-07-31T03:10:49;0.70;;;0.70;;
12665;SDS011;58531;59.050;17.416;2022-07-31T03:13:16;1.10;;;1.00;;
12665;SDS011;58531;59.050;17.416;2022-07-31T03:15:44;1.13;;;0.93;;
12665;SDS011;58531;59.050;17.416;2022-07-31T03:18:13;1.00;;;0.90;;
12665;SDS011;58531;59.050;17.416;2022-07-31T03:20:41;0.87;;;0.77;;
12665;SDS011;58531;59.050;17.416;2022-07-31T03:23:09;0.77;;;0.77;;
12665;SDS011;58531;59.050;17.416;2022-07-31T03:25:37;1.83;;;0.80;;
12665;SDS011;58531;59.050;17.416;2022-07-31T03:28:07;0.80;;;0.70;;
12665;SDS011;58531;59.050;17.416;2022-07-31T03:30:34;0.70;;;0.70;;
12665;SDS011;58531;59.050;17.416;2022-07-31T03:33:01;0.90;;;0.70;;
12665;SDS011;58531;59.050;17.416;2022-07-31T03:35:27;0.90;;;0.80;;
12665;SDS011;58531;59.050;17.416;2022-07-31T03:37:55;0.90;;;0.83;;
12665;SDS011;58531;59.050;17.416;2022-07-31T03:40:21;0.77;;;0.70;;
12665;SDS011;58531;59.050;17.416;2022-07-31T03:42:48;0.93;;;0.80;;
12665;SDS011;58531;59.050;17.416;2022-07-31T03:45:17;0.93;;;0.70;;
12665;SDS011;58531;59.050;17.416;2022-07-31T03:47:44;1.00;;;0.80;;
12665;SDS011;58531;59.050;17.416;2022-07-31T03:50:11;1.07;;;0.73;;
12665;SDS011;58531;59.050;17.416;2022-07-31T03:52:39;0.70;;;0.70;;
12665;SDS011;58531;59.050;17.416;2022-07-31T03:55:06;1.03;;;0.90;;
12665;SDS011;58531;59.050;17.416;2022-07-31T03:57:34;0.83;;;0.83;;
12665;SDS011;58531;59.050;17.416;2022-07-31T04:00:03;0.70;;;0.70;;
12665;SDS011;58531;59.050;17.416;2022-07-31T04:02:32;0.97;;;0.80;;
12665;SDS011;58531;59.050;17.416;2022-07-31T04:04:59;0.50;;;0.50;;
12665;SDS011;58531;59.050;17.416;2022-07-31T04:07:26;0.80;;;0.80;;
12665;SDS011;58531;59.050;17.416;2022-07-31T04:09:53;1.00;;;0.70;;
12665;SDS011;58531;59.050;17.416;2022-07-31T04:12:20;0.90;;;0.70;;
12665;SDS011;58531;59.050;17.416;2022-07-31T04:14:47;0.93;;;0.70;;
12665;SDS011;58531;59.050;17.416;2022-07-31T04:17:14;0.70;;;0.70;;
12665;SDS011;58531;59.050;17.416;2022-07-31T04:19:42;0.60;;;0.60;;
12665;SDS011;58531;59.050;17.416;2022-07-31T04:22:08;0.60;;;0.60;;
12665;SDS011;58531;59.050;17.416;2022-07-31T04:24:35;0.70;;;0.70;;
12665;SDS011;58531;59.050;17.416;2022-07-31T04:27:02;1.10;;;0.80;;
12665;SDS011;58531;59.050;17.416;2022-07-31T04:29:29;0.80;;;0.80;;
12665;SDS011;58531;59.050;17.416;2022-07-31T04:31:56;1.03;;;0.97;;
12665;SDS011;58531;59.050;17.416;2022-07-31T04:34:22;0.80;;;0.80;;
12665;SDS011;58531;59.050;17.416;2022-07-31T04:36:51;1.07;;;0.90;;
12665;SDS011;58531;59.050;17.416;2022-07-31T04:39:17;1.27;;;0.80;;
12665;SDS011;58531;59.050;17.416;2022-07-31T04:41:44;0.80;;;0.80;;
12665;SDS011;58531;59.050;17.416;2022-07-31T04:44:10;0.70;;;0.70;;
12665;SDS011;58531;59.050;17.416;2022-07-31T04:46:37;0.90;;;0.90;;
12665;SDS011;58531;59.050;17.416;2022-07-31T04:49:04;0.80;;;0.80;;
12665;SDS011;58531;59.050;17.416;2022-07-31T04:51:30;0.90;;;0.90;;
12665;SDS011;58531;59.050;17.416;2022-07-31T04:53:58;0.90;;;0.90;;
12665;SDS011;58531;59.050;17.416;2022-07-31T04:56:25;2.37;;;0.90;;
12665;SDS011;58531;59.050;17.416;2022-07-31T04:59:02;1.00;;;0.90;;
12665;SDS011;58531;59.050;17.416;2022-07-31T05:01:31;0.77;;;0.77;;
12665;SDS011;58531;59.050;17.416;2022-07-31T05:03:58;1.20;;;0.93;;
12665;SDS011;58531;59.050;17.416;2022-07-31T05:06:31;1.10;;;0.80;;
12665;SDS011;58531;59.050;17.416;2022-07-31T05:09:01;0.90;;;0.90;;
12665;SDS011;58531;59.050;17.416;2022-07-31T05:11:29;1.00;;;1.00;;
12665;SDS011;58531;59.050;17.416;2022-07-31T05:13:56;0.90;;;0.90;;
12665;SDS011;58531;59.050;17.416;2022-07-31T05:16:25;1.17;;;1.10;;
12665;SDS011;58531;59.050;17.416;2022-07-31T05:18:53;1.80;;;0.90;;
12665;SDS011;58531;59.050;17.416;2022-07-31T05:21:20;1.00;;;1.00;;
12665;SDS011;58531;59.050;17.416;2022-07-31T05:23:48;1.10;;;1.00;;
12665;SDS011;58531;59.050;17.416;2022-07-31T05:26:17;0.90;;;0.90;;
12665;SDS011;58531;59.050;17.416;2022-07-31T05:28:44;1.50;;;0.90;;
12665;SDS011;58531;59.050;17.416;2022-07-31T05:31:13;0.90;;;0.90;;
12665;SDS011;58531;59.050;17.416;2022-07-31T05:33:41;0.90;;;0.90;;
12665;SDS011;58531;59.050;17.416;2022-07-31T05:36:08;1.70;;;1.00;;
12665;SDS011;58531;59.050;17.416;2022-07-31T05:38:35;1.37;;;1.10;;
12665;SDS011;58531;59.050;17.416;2022-07-31T05:41:02;1.20;;;1.10;;
12665;SDS011;58531;59.050;17.416;2022-07-31T05:43:30;0.90;;;0.90;;
12665;SDS011;58531;59.050;17.416;2022-07-31T05:45:56;0.88;;;0.80;;
12665;SDS011;58531;59.050;17.416;2022-07-31T05:48:23;1.00;;;1.00;;
12665;SDS011;58531;59.050;17.416;2022-07-31T05:50:50;1.10;;;1.00;;
12665;SDS011;58531;59.050;17.416;2022-07-31T05:53:17;1.20;;;1.10;;
12665;SDS011;58531;59.050;17.416;2022-07-31T05:55:45;1.00;;;0.90;;
12665;SDS011;58531;59.050;17.416;2022-07-31T05:58:14;1.02;;;1.02;;
12665;SDS011;58531;59.050;17.416;2022-07-31T06:00:43;1.08;;;1.00;;
12665;SDS011;58531;59.050;17.416;2022-07-31T06:03:11;1.10;;;1.00;;
12665;SDS011;58531;59.050;17.416;2022-07-31T06:05:38;1.10;;;1.00;;
12665;SDS011;58531;59.050;17.416;2022-07-31T06:08:05;1.00;;;1.00;;
12665;SDS011;58531;59.050;17.416;2022-07-31T06:10:33;1.20;;;1.10;;
12665;SDS011;58531;59.050;17.416;2022-07-31T06:13:01;1.30;;;0.98;;
12665;SDS011;58531;59.050;17.416;2022-07-31T06:15:28;1.70;;;1.08;;
12665;SDS011;58531;59.050;17.416;2022-07-31T06:17:56;1.00;;;1.00;;
12665;SDS011;58531;59.050;17.416;2022-07-31T06:20:23;1.10;;;1.00;;
12665;SDS011;58531;59.050;17.416;2022-07-31T06:22:50;0.82;;;0.82;;
12665;SDS011;58531;59.050;17.416;2022-07-31T06:25:17;0.90;;;0.90;;
12665;SDS011;58531;59.050;17.416;2022-07-31T06:27:44;1.25;;;1.10;;
12665;SDS011;58531;59.050;17.416;2022-07-31T06:30:11;1.20;;;1.10;;
12665;SDS011;58531;59.050;17.416;2022-07-31T06:32:39;1.25;;;1.00;;
12665;SDS011;58531;59.050;17.416;2022-07-31T06:35:07;1.23;;;1.13;;
12665;SDS011;58531;59.050;17.416;2022-07-31T06:37:34;1.85;;;1.30;;
12665;SDS011;58531;59.050;17.416;2022-07-31T06:40:01;1.00;;;1.00;;
12665;SDS011;58531;59.050;17.416;2022-07-31T06:42:28;1.10;;;0.90;;
12665;SDS011;58531;59.050;17.416;2022-07-31T06:44:54;1.20;;;1.10;;
12665;SDS011;58531;59.050;17.416;2022-07-31T06:47:22;1.88;;;1.15;;
12665;SDS011;58531;59.050;17.416;2022-07-31T06:49:50;1.00;;;1.00;;
12665;SDS011;58531;59.050;17.416;2022-07-31T06:52:19;1.67;;;1.00;;
12665;SDS011;58531;59.050;17.416;2022-07-31T06:54:45;1.10;;;1.10;;
12665;SDS011;58531;59.050;17.416;2022-07-31T06:57:12;1.48;;;1.10;;
12665;SDS011;58531;59.050;17.416;2022-07-31T06:59:39;1.15;;;1.15;;
12665;SDS011;58531;59.050;17.416;2022-07-31T07:02:06;1.30;;;1.20;;
12665;SDS011;58531;59.050;17.416;2022-07-31T07:04:33;1.40;;;1.30;;
12665;SDS011;58531;59.050;17.416;2022-07-31T07:07:00;1.08;;;1.08;;
12665;SDS011;58531;59.050;17.416;2022-07-31T07:09:28;1.63;;;1.20;;
12665;SDS011;58531;59.050;17.416;2022-07-31T07:11:55;1.02;;;1.02;;
12665;SDS011;58531;59.050;17.416;2022-07-31T07:14:21;1.30;;;1.20;;
12665;SDS011;58531;59.050;17.416;2022-07-31T07:16:48;1.70;;;1.20;;
12665;SDS011;58531;59.050;17.416;2022-07-31T07:19:15;1.58;;;1.20;;
12665;SDS011;58531;59.050;17.416;2022-07-31T07:21:41;1.42;;;1.20;;
12665;SDS011;58531;59.050;17.416;2022-07-31T07:24:08;2.28;;;1.40;;
12665;SDS011;58531;59.050;17.416;2022-07-31T07:26:36;1.15;;;1.10;;
12665;SDS011;58531;59.050;17.416;2022-07-31T07:29:03;1.33;;;1.20;;
12665;SDS011;58531;59.050;17.416;2022-07-31T07:31:29;1.05;;;1.05;;
12665;SDS011;58531;59.050;17.416;2022-07-31T07:33:56;1.77;;;1.20;;
12665;SDS011;58531;59.050;17.416;2022-07-31T07:36:24;1.13;;;1.13;;
12665;SDS011;58531;59.050;17.416;2022-07-31T07:38:51;1.33;;;1.10;;
12665;SDS011;58531;59.050;17.416;2022-07-31T07:41:18;1.40;;;1.30;;
12665;SDS011;58531;59.050;17.416;2022-07-31T07:43:46;1.20;;;1.10;;
12665;SDS011;58531;59.050;17.416;2022-07-31T07:46:13;1.33;;;0.95;;
12665;SDS011;58531;59.050;17.416;2022-07-31T07:48:40;0.90;;;0.90;;
12665;SDS011;58531;59.050;17.416;2022-07-31T07:51:06;1.40;;;1.30;;
12665;SDS011;58531;59.050;17.416;2022-07-31T07:53:33;1.05;;;1.05;;
12665;SDS011;58531;59.050;17.416;2022-07-31T07:56:00;1.05;;;1.05;;
12665;SDS011;58531;59.050;17.416;2022-07-31T07:58:28;1.33;;;1.23;;
12665;SDS011;58531;59.050;17.416;2022-07-31T08:00:56;1.10;;;1.00;;
12665;SDS011;58531;59.050;17.416;2022-07-31T08:03:22;1.30;;;1.20;;
12665;SDS011;58531;59.050;17.416;2022-07-31T08:05:49;1.20;;;1.10;;
12665;SDS011;58531;59.050;17.416;2022-07-31T08:08:15;1.55;;;1.00;;
12665;SDS011;58531;59.050;17.416;2022-07-31T08:10:42;1.15;;;1.05;;
12665;SDS011;58531;59.050;17.416;2022-07-31T08:13:09;2.97;;;1.17;;
12665;SDS011;58531;59.050;17.416;2022-07-31T08:15:35;1.20;;;1.10;;
12665;SDS011;58531;59.050;17.416;2022-07-31T08:18:03;1.20;;;1.10;;
12665;SDS011;58531;59.050;17.416;2022-07-31T08:20:30;1.37;;;1.00;;
12665;SDS011;58531;59.050;17.416;2022-07-31T08:22:57;2.07;;;0.90;;
12665;SDS011;58531;59.050;17.416;2022-07-31T08:25:23;0.97;;;0.90;;
12665;SDS011;58531;59.050;17.416;2022-07-31T08:27:51;1.07;;;0.93;;
12665;SDS011;58531;59.050;17.416;2022-07-31T08:30:17;1.20;;;1.10;;
12665;SDS011;58531;59.050;17.416;2022-07-31T08:32:44;1.27;;;0.97;;
12665;SDS011;58531;59.050;17.416;2022-07-31T08:35:12;1.53;;;1.00;;
12665;SDS011;58531;59.050;17.416;2022-07-31T08:37:39;1.40;;;0.80;;
12665;SDS011;58531;59.050;17.416;2022-07-31T08:40:06;1.60;;;1.07;;
12665;SDS011;58531;59.050;17.416;2022-07-31T08:42:33;0.80;;;0.80;;
12665;SDS011;58531;59.050;17.416;2022-07-31T08:45:01;0.90;;;0.87;;
12665;SDS011;58531;59.050;17.416;2022-07-31T08:47:31;0.97;;;0.87;;
12665;SDS011;58531;59.050;17.416;2022-07-31T08:50:03;0.83;;;0.70;;
12665;SDS011;58531;59.050;17.416;2022-07-31T08:52:33;1.40;;;1.00;;
12665;SDS011;58531;59.050;17.416;2022-07-31T08:55:00;0.97;;;0.90;;
12665;SDS011;58531;59.050;17.416;2022-07-31T08:57:31;1.43;;;0.80;;
12665;SDS011;58531;59.050;17.416;2022-07-31T08:59:58;0.67;;;0.67;;
12665;SDS011;58531;59.050;17.416;2022-07-31T09:02:24;1.67;;;0.97;;
12665;SDS011;58531;59.050;17.416;2022-07-31T09:04:51;0.73;;;0.73;;
12665;SDS011;58531;59.050;17.416;2022-07-31T09:07:18;1.00;;;0.90;;
12665;SDS011;58531;59.050;17.416;2022-07-31T09:09:46;0.70;;;0.70;;
12665;SDS011;58531;59.050;17.416;2022-07-31T09:12:13;1.00;;;0.90;;
12665;SDS011;58531;59.050;17.416;2022-07-31T09:14:46;1.77;;;0.93;;
12665;SDS011;58531;59.050;17.416;2022-07-31T09:17:13;2.07;;;0.80;;
12665;SDS011;58531;59.050;17.416;2022-07-31T09:19:40;0.80;;;0.80;;
12665;SDS011;58531;59.050;17.416;2022-07-31T09:22:17;0.90;;;0.90;;
12665;SDS011;58531;59.050;17.416;2022-07-31T09:24:46;1.00;;;1.00;;
12665;SDS011;58531;59.050;17.416;2022-07-31T09:27:13;0.80;;;0.70;;
12665;SDS011;58531;59.050;17.416;2022-07-31T09:29:42;1.47;;;0.70;;
12665;SDS011;58531;59.050;17.416;2022-07-31T09:32:11;0.80;;;0.80;;
12665;SDS011;58531;59.050;17.416;2022-07-31T09:34:40;0.80;;;0.80;;
12665;SDS011;58531;59.050;17.416;2022-07-31T09:37:08;0.83;;;0.80;;
12665;SDS011;58531;59.050;17.416;2022-07-31T09:39:35;0.70;;;0.70;;
12665;SDS011;58531;59.050;17.416;2022-07-31T09:42:04;0.70;;;0.70;;
12665;SDS011;58531;59.050;17.416;2022-07-31T09:44:35;0.70;;;0.70;;
12665;SDS011;58531;59.050;17.416;2022-07-31T09:47:03;1.00;;;0.73;;
12665;SDS011;58531;59.050;17.416;2022-07-31T09:49:30;1.17;;;0.80;;
12665;SDS011;58531;59.050;17.416;2022-07-31T09:51:58;0.77;;;0.77;;
12665;SDS011;58531;59.050;17.416;2022-07-31T09:54:25;0.80;;;0.80;;
12665;SDS011;58531;59.050;17.416;2022-07-31T09:56:52;0.70;;;0.70;;
12665;SDS011;58531;59.050;17.416;2022-07-31T09:59:20;0.80;;;0.80;;
12665;SDS011;58531;59.050;17.416;2022-07-31T10:01:48;0.80;;;0.80;;
12665;SDS011;58531;59.050;17.416;2022-07-31T10:04:15;0.87;;;0.80;;
12665;SDS011;58531;59.050;17.416;2022-07-31T10:06:44;1.10;;;1.00;;
12665;SDS011;58531;59.050;17.416;2022-07-31T10:09:12;2.33;;;0.90;;
12665;SDS011;58531;59.050;17.416;2022-07-31T10:11:43;1.33;;;0.80;;
12665;SDS011;58531;59.050;17.416;2022-07-31T10:14:12;0.60;;;0.60;;
12665;SDS011;58531;59.050;17.416;2022-07-31T10:16:44;1.00;;;0.90;;
12665;SDS011;58531;59.050;17.416;2022-07-31T10:19:13;0.97;;;0.83;;
12665;SDS011;58531;59.050;17.416;2022-07-31T10:21:43;1.13;;;0.70;;
12665;SDS011;58531;59.050;17.416;2022-07-31T10:24:18;1.07;;;0.80;;
12665;SDS011;58531;59.050;17.416;2022-07-31T10:26:46;1.87;;;0.90;;
12665;SDS011;58531;59.050;17.416;2022-07-31T10:29:14;0.87;;;0.87;;
12665;SDS011;58531;59.050;17.416;2022-07-31T10:31:42;0.83;;;0.83;;
12665;SDS011;58531;59.050;17.416;2022-07-31T10:34:10;0.60;;;0.60;;
12665;SDS011;58531;59.050;17.416;2022-07-31T10:36:37;0.70;;;0.60;;
12665;SDS011;58531;59.050;17.416;2022-07-31T10:39:09;1.40;;;0.90;;
12665;SDS011;58531;59.050;17.416;2022-07-31T10:41:45;1.00;;;0.80;;
12665;SDS011;58531;59.050;17.416;2022-07-31T10:44:18;0.80;;;0.80;;
12665;SDS011;58531;59.050;17.416;2022-07-31T10:46:52;0.90;;;0.83;;
12665;SDS011;58531;59.050;17.416;2022-07-31T10:52:05;0.80;;;0.80;;
12665;SDS011;58531;59.050;17.416;2022-07-31T10:54:37;1.43;;;0.80;;
12665;SDS011;58531;59.050;17.416;2022-07-31T10:57:04;0.80;;;0.80;;
12665;SDS011;58531;59.050;17.416;2022-07-31T10:59:31;1.00;;;0.90;;
12665;SDS011;58531;59.050;17.416;2022-07-31T11:01:58;1.37;;;1.03;;
12665;SDS011;58531;59.050;17.416;2022-07-31T11:04:25;1.20;;;0.80;;
12665;SDS011;58531;59.050;17.416;2022-07-31T11:06:56;1.13;;;0.87;;
12665;SDS011;58531;59.050;17.416;2022-07-31T11:09:23;1.77;;;0.80;;
12665;SDS011;58531;59.050;17.416;2022-07-31T11:11:52;0.70;;;0.70;;
12665;SDS011;58531;59.050;17.416;2022-07-31T11:14:29;0.60;;;0.60;;
12665;SDS011;58531;59.050;17.416;2022-07-31T11:16:56;1.57;;;0.90;;
12665;SDS011;58531;59.050;17.416;2022-07-31T11:19:23;0.70;;;0.70;;
12665;SDS011;58531;59.050;17.416;2022-07-31T11:21:50;0.70;;;0.70;;
12665;SDS011;58531;59.050;17.416;2022-07-31T11:24:22;1.90;;;0.60;;
12665;SDS011;58531;59.050;17.416;2022-07-31T11:26:49;0.73;;;0.73;;
12665;SDS011;58531;59.050;17.416;2022-07-31T11:29:26;1.57;;;0.67;;
12665;SDS011;58531;59.050;17.416;2022-07-31T11:31:54;0.80;;;0.80;;
12665;SDS011;58531;59.050;17.416;2022-07-31T11:34:24;0.73;;;0.73;;
12665;SDS011;58531;59.050;17.416;2022-07-31T11:36:54;0.87;;;0.87;;
12665;SDS011;58531;59.050;17.416;2022-07-31T11:39:20;0.77;;;0.70;;
12665;SDS011;58531;59.050;17.416;2022-07-31T11:41:51;0.97;;;0.70;;
12665;SDS011;58531;59.050;17.416;2022-07-31T11:44:19;0.70;;;0.70;;
12665;SDS011;58531;59.050;17.416;2022-07-31T11:46:47;0.80;;;0.80;;
12665;SDS011;58531;59.050;17.416;2022-07-31T11:49:18;1.83;;;0.80;;
12665;SDS011;58531;59.050;17.416;2022-07-31T11:51:46;2.40;;;0.70;;
12665;SDS011;58531;59.050;17.416;2022-07-31T11:54:20;1.87;;;0.70;;
12665;SDS011;58531;59.050;17.416;2022-07-31T11:56:50;0.87;;;0.73;;
12665;SDS011;58531;59.050;17.416;2022-07-31T11:59:18;0.73;;;0.73;;
12665;SDS011;58531;59.050;17.416;2022-07-31T12:02:00;0.70;;;0.70;;
12665;SDS011;58531;59.050;17.416;2022-07-31T12:04:28;1.27;;;0.77;;
12665;SDS011;58531;59.050;17.416;2022-07-31T12:06:55;0.80;;;0.80;;
12665;SDS011;58531;59.050;17.416;2022-07-31T12:09:24;0.90;;;0.70;;
12665;SDS011;58531;59.050;17.416;2022-07-31T12:11:51;0.90;;;0.90;;
12665;SDS011;58531;59.050;17.416;2022-07-31T12:14:25;0.93;;;0.70;;
12665;SDS011;58531;59.050;17.416;2022-07-31T12:16:53;0.80;;;0.80;;
12665;SDS011;58531;59.050;17.416;2022-07-31T12:19:24;0.90;;;0.80;;
12665;SDS011;58531;59.050;17.416;2022-07-31T12:21:51;0.90;;;0.77;;
12665;SDS011;58531;59.050;17.416;2022-07-31T12:24:18;0.80;;;0.80;;
12665;SDS011;58531;59.050;17.416;2022-07-31T12:26:49;0.70;;;0.70;;
12665;SDS011;58531;59.050;17.416;2022-07-31T12:29:17;1.17;;;0.73;;
12665;SDS011;58531;59.050;17.416;2022-07-31T12:31:46;0.60;;;0.60;;
12665;SDS011;58531;59.050;17.416;2022-07-31T12:34:25;0.73;;;0.73;;
12665;SDS011;58531;59.050;17.416;2022-07-31T12:36:56;0.73;;;0.73;;
12665;SDS011;58531;59.050;17.416;2022-07-31T12:39:23;0.80;;;0.80;;
12665;SDS011;58531;59.050;17.416;2022-07-31T12:41:51;2.10;;;0.83;;
12665;SDS011;58531;59.050;17.416;2022-07-31T12:44:18;1.30;;;0.80;;
12665;SDS011;58531;59.050;17.416;2022-07-31T12:46:45;0.57;;;0.57;;
12665;SDS011;58531;59.050;17.416;2022-07-31T12:49:12;0.70;;;0.67;;
12665;SDS011;58531;59.050;17.416;2022-07-31T12:51:39;0.90;;;0.80;;
12665;SDS011;58531;59.050;17.416;2022-07-31T12:54:06;0.80;;;0.80;;
12665;SDS011;58531;59.050;17.416;2022-07-31T12:56:34;0.70;;;0.70;;
12665;SDS011;58531;59.050;17.416;2022-07-31T12:59:03;1.20;;;0.70;;
12665;SDS011;58531;59.050;17.416;2022-07-31T13:01:30;1.03;;;0.73;;
12665;SDS011;58531;59.050;17.416;2022-07-31T13:03:58;0.73;;;0.70;;
12665;SDS011;58531;59.050;17.416;2022-07-31T13:06:25;0.80;;;0.80;;
12665;SDS011;58531;59.050;17.416;2022-07-31T13:08:54;0.80;;;0.80;;
12665;SDS011;58531;59.050;17.416;2022-07-31T13:11:21;1.10;;;1.00;;
12665;SDS011;58531;59.050;17.416;2022-07-31T13:13:49;0.83;;;0.83;;
12665;SDS011;58531;59.050;17.416;2022-07-31T13:16:17;2.20;;;0.73;;
12665;SDS011;58531;59.050;17.416;2022-07-31T13:18:44;1.70;;;0.70;;
12665;SDS011;58531;59.050;17.416;2022-07-31T13:21:10;0.80;;;0.80;;
12665;SDS011;58531;59.050;17.416;2022-07-31T13:23:37;0.70;;;0.70;;
12665;SDS011;58531;59.050;17.416;2022-07-31T13:26:04;0.93;;;0.83;;
12665;SDS011;58531;59.050;17.416;2022-07-31T13:28:31;1.47;;;1.00;;
12665;SDS011;58531;59.050;17.416;2022-07-31T13:30:57;1.00;;;0.83;;
12665;SDS011;58531;59.050;17.416;2022-07-31T13:33:25;0.73;;;0.73;;
12665;SDS011;58531;59.050;17.416;2022-07-31T13:35:51;1.27;;;0.80;;
12665;SDS011;58531;59.050;17.416;2022-07-31T13:38:18;3.13;;;0.87;;
12665;SDS011;58531;59.050;17.416;2022-07-31T13:40:45;0.70;;;0.70;;
12665;SDS011;58531;59.050;17.416;2022-07-31T13:43:28;0.70;;;0.70;;
12665;SDS011;58531;59.050;17.416;2022-07-31T13:45:55;0.80;;;0.80;;
12665;SDS011;58531;59.050;17.416;2022-07-31T13:48:22;0.90;;;0.60;;
12665;SDS011;58531;59.050;17.416;2022-07-31T13:50:52;1.90;;;0.70;;
12665;SDS011;58531;59.050;17.416;2022-07-31T13:53:19;1.23;;;0.73;;
12665;SDS011;58531;59.050;17.416;2022-07-31T13:55:45;0.70;;;0.70;;
12665;SDS011;58531;59.050;17.416;2022-07-31T13:58:12;1.30;;;0.80;;
12665;SDS011;58531;59.050;17.416;2022-07-31T14:00:39;1.30;;;0.83;;
12665;SDS011;58531;59.050;17.416;2022-07-31T14:03:06;1.47;;;0.67;;
12665;SDS011;58531;59.050;17.416;2022-07-31T14:05:32;1.00;;;0.80;;
12665;SDS011;58531;59.050;17.416;2022-07-31T14:08:01;1.50;;;0.80;;
12665;SDS011;58531;59.050;17.416;2022-07-31T14:10:27;0.80;;;0.80;;
12665;SDS011;58531;59.050;17.416;2022-07-31T14:12:54;0.83;;;0.83;;
12665;SDS011;58531;59.050;17.416;2022-07-31T14:15:20;1.20;;;0.70;;
12665;SDS011;58531;59.050;17.416;2022-07-31T14:17:47;0.97;;;0.80;;
12665;SDS011;58531;59.050;17.416;2022-07-31T14:20:14;0.80;;;0.80;;
12665;SDS011;58531;59.050;17.416;2022-07-31T14:22:41;1.30;;;0.60;;
12665;SDS011;58531;59.050;17.416;2022-07-31T14:25:09;1.10;;;1.00;;
12665;SDS011;58531;59.050;17.416;2022-07-31T14:27:36;1.03;;;0.90;;
12665;SDS011;58531;59.050;17.416;2022-07-31T14:30:04;0.80;;;0.80;;
12665;SDS011;58531;59.050;17.416;2022-07-31T14:32:31;0.90;;;0.80;;
12665;SDS011;58531;59.050;17.416;2022-07-31T14:34:58;1.13;;;0.77;;
12665;SDS011;58531;59.050;17.416;2022-07-31T14:37:24;1.70;;;0.87;;
12665;SDS011;58531;59.050;17.416;2022-07-31T14:39:51;1.63;;;0.90;;
12665;SDS011;58531;59.050;17.416;2022-07-31T14:42:19;1.80;;;1.00;;